createdAt,value
2022-11-29T00:00:50.095Z,35.97
2022-11-29T00:03:21.107Z,40.92
2022-11-29T00:05:48.371Z,38.75
2022-11-29T00:08:15.312Z,37.60
2022-11-29T00:10:42.450Z,35.40
2022-11-29T00:13:09.530Z,32.83
2022-11-29T00:15:39.219Z,34.20
2022-11-29T00:18:07.141Z,37.75
2022-11-29T00:20:34.882Z,36.93
2022-11-29T00:23:02.237Z,35.83
2022-11-29T00:25:29.463Z,33.15
2022-11-29T00:27:56.471Z,34.58
2022-11-29T00:30:23.829Z,35.17
2022-11-29T00:32:52.233Z,38.53
2022-11-29T00:35:19.499Z,34.78
2022-11-29T00:37:46.247Z,30.42
2022-11-29T00:40:13.476Z,36.83
2022-11-29T00:42:40.357Z,35.20
2022-11-29T00:45:08.485Z,35.15
2022-11-29T00:47:35.433Z,30.98
2022-11-29T00:50:04.767Z,33.67
2022-11-29T00:54:59.185Z,28.50
2022-11-29T00:57:26.075Z,31.20
2022-11-29T00:59:53.216Z,34.10
2022-11-29T01:02:20.144Z,29.77
2022-11-29T01:04:47.522Z,32.28
2022-11-29T01:07:16.015Z,33.15
2022-11-29T01:09:43.471Z,34.47
2022-11-29T01:12:10.482Z,35.38
2022-11-29T01:14:37.944Z,32.22
2022-11-29T01:17:04.847Z,38.72
2022-11-29T01:19:32.243Z,30.70
2022-11-29T01:21:59.310Z,31.30
2022-11-29T01:24:29.718Z,30.00
2022-11-29T01:26:56.695Z,32.13
2022-11-29T01:29:23.893Z,28.58
2022-11-29T01:31:50.849Z,29.25
2022-11-29T01:34:18.235Z,30.67
2022-11-29T01:36:45.311Z,30.05
2022-11-29T01:39:12.466Z,32.67
2022-11-29T01:41:40.714Z,28.70
2022-11-29T01:44:46.851Z,27.83
2022-11-29T01:47:13.987Z,26.13
2022-11-29T01:49:44.120Z,30.92
2022-11-29T01:52:15.084Z,25.40
2022-11-29T01:54:46.332Z,33.08
2022-11-29T01:57:15.390Z,26.40
2022-11-29T01:59:45.701Z,26.05
2022-11-29T02:02:15.181Z,27.90
2022-11-29T02:04:45.463Z,29.95
2022-11-29T02:07:12.899Z,30.13
2022-11-29T02:09:40.143Z,32.65
2022-11-29T02:12:21.348Z,31.65
2022-11-29T02:15:05.415Z,29.90
2022-11-29T02:17:43.488Z,28.38
2022-11-29T02:21:03.443Z,32.30
2022-11-29T02:23:51.254Z,32.17
2022-11-29T02:26:34.457Z,23.97
2022-11-29T02:29:31.280Z,23.30
2022-11-29T02:32:34.262Z,27.13
2022-11-29T02:35:18.116Z,22.63
2022-11-29T02:38:06.389Z,26.48
2022-11-29T02:40:55.552Z,21.80
2022-11-29T02:43:57.852Z,26.88
2022-11-29T02:46:48.214Z,22.58
2022-11-29T02:49:26.032Z,23.80
2022-11-29T02:51:59.534Z,21.02
2022-11-29T02:54:34.845Z,27.23
2022-11-29T02:57:07.253Z,24.95
2022-11-29T02:59:45.603Z,27.15
2022-11-29T03:02:21.568Z,23.85
2022-11-29T03:04:53.780Z,25.08
2022-11-29T03:07:30.320Z,18.88
2022-11-29T03:10:03.601Z,22.10
2022-11-29T03:12:38.353Z,22.70
2022-11-29T03:15:19.225Z,27.63
2022-11-29T03:18:08.007Z,23.92
2022-11-29T03:23:15.099Z,22.23
2022-11-29T03:25:46.228Z,26.00
2022-11-29T03:28:18.761Z,27.67
2022-11-29T03:30:55.598Z,25.17
2022-11-29T03:33:30.808Z,23.60
2022-11-29T03:36:05.787Z,26.60
2022-11-29T03:38:40.054Z,24.33
2022-11-29T03:41:17.825Z,25.73
2022-11-29T03:43:50.400Z,25.33
2022-11-29T03:46:25.341Z,21.65
2022-11-29T03:48:59.666Z,21.10
2022-11-29T03:51:38.844Z,21.70
2022-11-29T03:54:12.853Z,20.40
2022-11-29T03:56:40.959Z,21.75
2022-11-29T03:59:21.167Z,22.40
2022-11-29T04:02:16.718Z,21.08
2022-11-29T04:05:09.291Z,24.77
2022-11-29T04:07:51.370Z,25.73
2022-11-29T04:10:37.370Z,24.75
2022-11-29T04:13:29.230Z,24.52
2022-11-29T04:16:25.265Z,22.25
2022-11-29T04:19:20.757Z,27.88
2022-11-29T04:22:10.677Z,23.67
2022-11-29T04:25:32.149Z,22.70
2022-11-29T04:28:16.082Z,23.98
2022-11-29T04:30:59.786Z,20.75
2022-11-29T04:33:58.428Z,25.98
2022-11-29T04:37:01.510Z,22.60
2022-11-29T04:39:48.980Z,24.80
2022-11-29T04:42:46.624Z,26.63
2022-11-29T04:45:53.513Z,27.63
2022-11-29T04:48:39.167Z,25.20
2022-11-29T04:51:17.290Z,26.98
2022-11-29T04:53:58.328Z,29.95
2022-11-29T04:56:32.860Z,30.70
2022-11-29T04:59:07.610Z,31.15
2022-11-29T05:01:45.906Z,29.75
2022-11-29T05:04:20.935Z,26.95
2022-11-29T05:06:58.692Z,31.20
2022-11-29T05:09:38.387Z,23.98
2022-11-29T05:12:14.401Z,26.42
2022-11-29T05:15:00.945Z,26.77
2022-11-29T05:17:36.705Z,24.52
2022-11-29T05:20:21.435Z,27.80
2022-11-29T05:23:00.147Z,35.38
2022-11-29T05:28:10.387Z,32.60
2022-11-29T05:31:06.489Z,27.10
2022-11-29T05:33:49.756Z,30.88
2022-11-29T05:36:27.259Z,43.58
2022-11-29T05:39:12.328Z,30.60
2022-11-29T05:41:57.608Z,43.85
2022-11-29T05:44:32.522Z,35.22
2022-11-29T05:47:02.573Z,36.28
2022-11-29T05:49:40.212Z,31.45
2022-11-29T05:52:21.875Z,33.83
2022-11-29T05:55:02.452Z,38.53
2022-11-29T05:57:38.747Z,28.70
2022-11-29T06:00:10.658Z,36.33
2022-11-29T06:02:52.201Z,36.45
2022-11-29T06:05:28.867Z,32.50
2022-11-29T06:08:02.691Z,29.80
2022-11-29T06:10:33.864Z,29.45
2022-11-29T06:13:11.408Z,26.48
2022-11-29T06:16:02.781Z,26.20
2022-11-29T06:18:54.512Z,26.88
2022-11-29T06:21:30.689Z,23.98
2022-11-29T06:24:25.930Z,25.95
2022-11-29T06:27:25.616Z,22.95
2022-11-29T06:30:02.227Z,23.63
2022-11-29T06:32:34.501Z,19.90
2022-11-29T06:35:08.079Z,22.58
2022-11-29T06:37:39.146Z,30.98
2022-11-29T06:40:10.828Z,25.35
2022-11-29T06:42:37.793Z,27.98
2022-11-29T06:45:06.191Z,24.73
2022-11-29T06:47:40.949Z,26.23
2022-11-29T06:50:25.208Z,23.15
2022-11-29T06:52:59.323Z,21.80
2022-11-29T06:55:38.192Z,24.73
2022-11-29T06:58:17.208Z,28.38
2022-11-29T07:00:56.504Z,29.00
2022-11-29T07:03:56.269Z,25.13
2022-11-29T07:06:27.826Z,32.97
2022-11-29T08:29:13.144Z,32.33
2022-11-29T08:31:40.460Z,35.08
2022-11-29T08:34:08.278Z,29.92
2022-11-29T08:36:35.477Z,28.27
2022-11-29T08:39:08.978Z,35.50
2022-11-29T08:41:36.923Z,27.92
2022-11-29T08:44:05.024Z,28.27
2022-11-29T08:46:52.336Z,30.93
2022-11-29T08:49:19.285Z,34.45
2022-11-29T08:51:46.552Z,22.30
2022-11-29T08:54:13.510Z,28.55
2022-11-29T08:59:27.567Z,34.30
2022-11-29T09:01:56.195Z,27.75
2022-11-29T09:04:23.263Z,27.30
2022-11-29T09:06:50.655Z,26.08
2022-11-29T09:09:17.789Z,28.90
2022-11-29T09:11:49.245Z,21.10
2022-11-29T09:14:17.779Z,29.92
2022-11-29T09:16:45.139Z,23.63
2022-11-29T09:19:14.768Z,21.25
2022-11-29T09:21:41.959Z,20.40
2022-11-29T09:24:10.390Z,21.52
2022-11-29T09:26:38.168Z,26.23
2022-11-29T09:29:06.650Z,26.98
2022-11-29T09:31:35.034Z,22.63
2022-11-29T09:34:02.388Z,24.17
2022-11-29T09:36:31.367Z,23.08
2022-11-29T09:38:59.555Z,22.83
2022-11-29T09:41:48.647Z,24.67
2022-11-29T09:46:58.855Z,18.95
2022-11-29T09:49:41.087Z,25.25
2022-11-29T09:52:22.412Z,17.95
2022-11-29T09:54:56.965Z,20.70
2022-11-29T09:57:26.984Z,22.38
2022-11-29T09:59:58.953Z,28.58
2022-11-29T10:02:36.104Z,22.20
2022-11-29T10:05:10.466Z,20.17
2022-11-29T10:07:46.278Z,26.83
2022-11-29T10:10:18.426Z,27.05
2022-11-29T10:12:50.480Z,27.23
2022-11-29T10:15:21.578Z,26.58
2022-11-29T10:17:54.621Z,31.20
2022-11-29T10:20:24.634Z,23.23
2022-11-29T10:22:57.402Z,20.02
2022-11-29T10:25:26.235Z,24.15
2022-11-29T10:30:21.292Z,24.83
2022-11-29T10:32:56.128Z,19.33
2022-11-29T10:35:23.399Z,19.90
2022-11-29T10:38:28.660Z,24.33
2022-11-29T10:40:46.952Z,15.85
2022-11-29T10:43:14.213Z,20.27
2022-11-29T10:45:50.031Z,21.65
2022-11-29T10:48:20.042Z,20.83
2022-11-29T10:50:49.272Z,17.95
2022-11-29T10:53:22.677Z,16.33
2022-11-29T10:55:54.915Z,14.73
2022-11-29T10:58:28.308Z,18.80
2022-11-29T11:00:58.337Z,16.48
2022-11-29T11:03:33.551Z,13.43
2022-11-29T11:06:04.304Z,18.50
2022-11-29T11:08:34.329Z,17.58
2022-11-29T11:11:03.256Z,14.05
2022-11-29T11:13:32.206Z,16.02
2022-11-29T11:16:09.827Z,18.38
2022-11-29T11:18:37.889Z,11.38
2022-11-29T11:21:09.436Z,21.85
2022-11-29T11:23:45.392Z,18.48
2022-11-29T11:26:14.629Z,17.05
2022-11-29T11:28:48.500Z,16.30
2022-11-29T11:31:16.387Z,15.35
2022-11-29T11:33:45.670Z,24.87
2022-11-29T11:36:15.343Z,17.88
2022-11-29T11:38:52.042Z,11.05
2022-11-29T11:41:23.505Z,16.42
2022-11-29T11:43:56.354Z,10.60
2022-11-29T11:46:23.831Z,12.85
2022-11-29T11:48:51.702Z,14.45
2022-11-29T11:51:23.250Z,12.85
2022-11-29T11:53:55.680Z,14.07
2022-11-29T11:56:24.223Z,14.02
2022-11-29T11:58:54.189Z,12.85
2022-11-29T12:01:28.684Z,13.48
2022-11-29T12:04:02.477Z,12.85
2022-11-29T12:06:37.274Z,14.88
2022-11-29T12:09:16.476Z,14.15
2022-11-29T12:11:49.662Z,14.38
2022-11-29T12:14:25.651Z,16.45
2022-11-29T12:17:15.457Z,14.75
2022-11-29T12:19:58.915Z,17.80
2022-11-29T12:22:30.649Z,12.75
2022-11-29T12:25:05.495Z,17.02
2022-11-29T12:27:32.377Z,12.45
2022-11-29T12:30:00.085Z,19.95
2022-11-29T12:32:51.712Z,18.85
2022-11-29T12:35:39.348Z,11.65
2022-11-29T12:38:15.878Z,12.65
2022-11-29T12:40:53.441Z,14.93
2022-11-29T12:43:30.505Z,17.38
2022-11-29T12:46:04.686Z,13.57
2022-11-29T12:48:41.036Z,13.95
2022-11-29T12:51:19.822Z,18.20
2022-11-29T12:54:02.306Z,16.83
2022-11-29T12:56:38.515Z,16.17
2022-11-29T12:59:22.188Z,15.70
2022-11-29T13:02:03.836Z,24.30
2022-11-29T13:04:39.006Z,21.38
2022-11-29T13:07:14.733Z,18.98
2022-11-29T13:09:56.322Z,15.88
2022-11-29T13:12:33.124Z,21.60
2022-11-29T13:15:05.339Z,13.90
2022-11-29T13:17:39.633Z,16.90
2022-11-29T13:20:20.885Z,12.60
2022-11-29T13:22:56.137Z,16.45
2022-11-29T13:25:27.558Z,21.20
2022-11-29T13:28:00.138Z,14.45
2022-11-29T13:30:27.344Z,14.98
2022-11-29T13:33:04.218Z,17.92
2022-11-29T13:35:38.807Z,17.48
2022-11-29T13:38:18.585Z,20.42
2022-11-29T13:40:57.046Z,15.23
2022-11-29T13:43:36.686Z,14.43
2022-11-29T13:46:16.435Z,15.82
2022-11-29T13:48:49.952Z,22.55
2022-11-29T13:51:28.833Z,17.15
2022-11-29T13:53:57.921Z,20.85
2022-11-29T13:56:33.461Z,18.65
2022-11-29T13:59:06.888Z,15.32
2022-11-29T14:01:44.178Z,23.33
2022-11-29T14:04:26.509Z,21.83
2022-11-29T14:07:04.176Z,25.83
2022-11-29T14:09:41.097Z,20.20
2022-11-29T14:12:26.859Z,18.25
2022-11-29T14:15:00.297Z,20.80
2022-11-29T14:17:48.651Z,22.05
2022-11-29T14:20:45.773Z,18.02
2022-11-29T14:23:29.619Z,19.83
2022-11-29T14:26:28.116Z,20.75
2022-11-29T14:28:55.861Z,21.85
2022-11-29T14:31:55.508Z,23.52
2022-11-29T14:34:42.535Z,17.50
2022-11-29T14:37:29.934Z,33.92
2022-11-29T14:39:59.907Z,20.10
2022-11-29T14:42:28.403Z,22.40
2022-11-29T14:45:06.289Z,29.40
2022-11-29T14:47:37.166Z,24.63
2022-11-29T14:50:09.211Z,27.42
2022-11-29T14:52:39.069Z,22.35
2022-11-29T14:55:25.645Z,29.00
2022-11-29T14:57:55.069Z,25.55
2022-11-29T15:00:23.599Z,30.10
2022-11-29T15:02:56.413Z,27.23
2022-11-29T15:05:30.893Z,20.70
2022-11-29T15:08:09.090Z,24.77
2022-11-29T15:10:40.149Z,23.13
2022-11-29T15:13:12.403Z,29.83
2022-11-29T15:15:58.458Z,23.67
2022-11-29T15:18:51.169Z,18.38
2022-11-29T15:21:31.507Z,22.35
2022-11-29T15:24:03.116Z,19.95
2022-11-29T15:26:31.026Z,23.98
2022-11-29T15:29:13.384Z,19.73
2022-11-29T15:31:41.512Z,20.30
2022-11-29T15:34:20.319Z,22.85
2022-11-29T15:36:47.811Z,19.75
2022-11-29T15:39:30.570Z,17.52
2022-11-29T15:42:02.197Z,21.92
2022-11-29T15:44:32.591Z,23.52
2022-11-29T15:47:16.405Z,22.50
2022-11-29T15:49:45.317Z,21.05
2022-11-29T15:52:20.562Z,25.83
2022-11-29T15:54:52.017Z,23.00
2022-11-29T15:57:24.985Z,20.08
2022-11-29T15:59:55.442Z,20.55
2022-11-29T16:02:25.108Z,19.27
2022-11-29T16:04:57.427Z,23.75
2022-11-29T16:07:27.540Z,26.30
2022-11-29T16:09:59.192Z,21.08
2022-11-29T16:12:26.737Z,20.52
2022-11-29T16:14:56.526Z,19.98
2022-11-29T16:17:25.997Z,23.58
2022-11-29T16:20:05.240Z,22.38
2022-11-29T16:22:32.500Z,25.77
2022-11-29T16:25:07.994Z,22.05
2022-11-29T16:27:35.976Z,27.00
2022-11-29T16:30:07.520Z,23.15
2022-11-29T16:32:38.321Z,29.20
2022-11-29T16:35:12.531Z,27.20
2022-11-29T16:37:46.282Z,29.55
2022-11-29T16:40:24.626Z,25.17
2022-11-29T16:43:08.118Z,26.15
2022-11-29T16:45:37.064Z,29.33
2022-11-29T16:48:28.580Z,27.52
2022-11-29T16:51:25.442Z,28.63
2022-11-29T16:53:53.772Z,25.83
2022-11-29T16:56:24.601Z,23.45
2022-11-29T16:59:25.498Z,30.23
2022-11-29T17:01:41.030Z,40.47
2022-11-29T17:04:09.328Z,26.13
2022-11-29T17:06:38.205Z,39.15
2022-11-29T17:09:05.603Z,35.80
2022-11-29T17:11:32.947Z,27.30
2022-11-29T17:13:59.883Z,29.35
2022-11-29T17:16:27.103Z,26.80
2022-11-29T17:18:54.256Z,28.15
2022-11-29T17:21:24.007Z,45.25
2022-11-29T17:23:53.388Z,30.02
2022-11-29T17:26:21.743Z,28.13
2022-11-29T17:28:50.376Z,30.83
2022-11-29T17:31:20.187Z,29.70
2022-11-29T17:33:48.665Z,31.27
2022-11-29T17:36:19.290Z,45.88
2022-11-29T17:38:46.768Z,30.92
2022-11-29T17:41:16.586Z,31.92
2022-11-29T17:43:43.694Z,26.70
2022-11-29T17:46:13.096Z,37.45
2022-11-29T17:51:28.803Z,33.70
2022-11-29T17:53:54.958Z,34.75
2022-11-29T17:56:24.962Z,38.83
2022-11-29T17:58:53.068Z,38.67
2022-11-29T18:01:21.809Z,48.78
2022-11-29T18:03:51.752Z,46.00
2022-11-29T18:06:20.668Z,37.85
2022-11-29T18:08:50.755Z,33.92
2022-11-29T18:11:21.518Z,32.63
2022-11-29T18:13:50.506Z,37.05
2022-11-29T18:16:19.955Z,37.40
2022-11-29T18:18:47.840Z,34.80
2022-11-29T18:21:19.963Z,39.63
2022-11-29T18:23:50.865Z,34.20
2022-11-29T18:26:20.270Z,36.42
2022-11-29T18:31:18.939Z,32.08
2022-11-29T18:33:48.217Z,31.58
2022-11-29T18:36:17.416Z,27.73
2022-11-29T18:38:45.697Z,29.83
2022-11-29T18:41:15.771Z,31.95
2022-11-29T18:43:43.062Z,25.38
2022-11-29T18:46:11.995Z,29.50
2022-11-29T18:48:41.216Z,28.25
2022-11-29T18:51:10.279Z,31.58
2022-11-29T18:53:38.126Z,26.33
2022-11-29T18:56:07.760Z,32.40
2022-11-29T18:58:34.767Z,22.70
2022-11-29T19:01:07.186Z,29.08
2022-11-29T19:03:35.895Z,29.98
2022-11-29T19:06:07.476Z,29.73
2022-11-29T19:08:34.747Z,24.77
2022-11-29T19:11:04.664Z,25.42
2022-11-29T19:13:31.859Z,25.75
2022-11-29T19:15:59.710Z,24.80
2022-11-29T19:18:26.763Z,25.33
2022-11-29T19:20:53.972Z,21.80
2022-11-29T19:23:22.708Z,27.25
2022-11-29T19:25:50.414Z,25.02
2022-11-29T19:28:18.576Z,27.23
2022-11-29T19:30:54.122Z,21.67
2022-11-29T19:33:21.075Z,20.67
2022-11-29T19:35:48.154Z,21.42
2022-11-29T19:38:15.468Z,28.77
2022-11-29T19:40:44.050Z,23.73
2022-11-29T19:43:11.194Z,23.55
2022-11-29T19:45:39.277Z,20.13
2022-11-29T19:48:06.697Z,23.88
2022-11-29T19:50:33.886Z,25.40
2022-11-29T19:53:00.770Z,22.88
2022-11-29T19:55:27.977Z,25.02
2022-11-29T19:57:56.718Z,26.40
2022-11-29T20:02:51.417Z,25.65
2022-11-29T20:05:18.831Z,30.30
2022-11-29T20:07:45.903Z,37.63
2022-11-29T20:10:13.122Z,31.00
2022-11-29T20:12:40.046Z,36.78
2022-11-29T20:15:09.368Z,32.80
2022-11-29T20:20:04.143Z,33.05
2022-11-29T20:22:30.982Z,42.60
2022-11-29T20:24:58.237Z,30.90
2022-11-29T20:27:25.139Z,32.75
2022-11-29T20:29:52.458Z,34.78
2022-11-29T20:32:22.155Z,37.05
2022-11-29T20:34:50.053Z,47.28
2022-11-29T20:37:30.467Z,34.55
2022-11-29T20:40:00.538Z,38.17
2022-11-29T20:42:44.624Z,31.25
2022-11-29T20:45:13.701Z,36.65
2022-11-29T20:47:49.135Z,35.83
2022-11-29T20:50:22.870Z,38.35
2022-11-29T20:53:01.120Z,37.33
2022-11-29T20:55:28.439Z,33.50
2022-11-29T20:57:55.410Z,38.70
2022-11-29T21:00:22.967Z,37.55
2022-11-29T21:02:51.229Z,37.97
2022-11-29T21:05:18.382Z,42.13
2022-11-29T21:07:45.831Z,41.75
2022-11-29T21:10:16.402Z,42.92
2022-11-29T21:12:45.659Z,47.53
2022-11-29T21:15:14.492Z,39.97
2022-11-29T21:17:42.931Z,43.08
2022-11-29T21:20:18.329Z,35.45
2022-11-29T21:22:52.877Z,37.03
2022-11-29T21:25:24.990Z,37.92
2022-11-29T21:27:54.436Z,41.72
2022-11-29T21:30:24.273Z,41.67
2022-11-29T21:32:52.130Z,36.35
2022-11-29T21:35:23.332Z,34.23
2022-11-29T21:37:54.434Z,40.80
2022-11-29T21:40:21.663Z,42.38
2022-11-29T21:42:48.532Z,35.28
2022-11-29T21:45:16.276Z,39.40
2022-11-29T21:47:44.127Z,38.78
2022-11-29T21:50:12.276Z,45.17
2022-11-29T21:52:40.541Z,38.22
2022-11-29T21:55:08.608Z,42.10
2022-11-29T21:57:35.684Z,35.50
2022-11-29T22:00:03.939Z,34.92
2022-11-29T22:02:30.920Z,31.00
2022-11-29T22:04:58.279Z,33.95
2022-11-29T22:07:25.198Z,37.47
2022-11-29T22:09:53.762Z,34.13
2022-11-29T22:12:33.721Z,35.30
2022-11-29T22:15:01.900Z,36.03
2022-11-29T22:17:28.767Z,32.08
2022-11-29T22:19:55.920Z,38.38
2022-11-29T22:22:25.042Z,39.28
2022-11-29T22:24:55.737Z,34.30
2022-11-29T22:27:22.661Z,30.87
2022-11-29T22:29:50.276Z,34.45
2022-11-29T22:32:17.254Z,33.10
2022-11-29T22:34:44.759Z,37.35
2022-11-29T22:37:12.501Z,32.38
2022-11-29T22:39:39.629Z,30.55
2022-11-29T22:42:07.881Z,33.03
2022-11-29T22:44:35.083Z,32.35
2022-11-29T22:47:02.192Z,27.08
2022-11-29T22:49:30.024Z,30.27
2022-11-29T22:51:56.893Z,34.45
2022-11-29T22:54:24.085Z,35.28
2022-11-29T22:56:52.233Z,31.60
2022-11-29T22:59:20.786Z,30.00
2022-11-29T23:01:47.959Z,28.75
2022-11-29T23:04:15.717Z,29.35
2022-11-29T23:06:43.866Z,28.17
2022-11-29T23:09:16.251Z,35.80
2022-11-29T23:11:46.231Z,35.53
2022-11-29T23:14:13.886Z,30.15
2022-11-29T23:16:42.264Z,31.13
2022-11-29T23:19:10.145Z,33.85
2022-11-29T23:21:38.791Z,37.97
2022-11-29T23:24:06.511Z,30.17
2022-11-29T23:26:39.641Z,37.30
2022-11-29T23:29:08.912Z,37.65
2022-11-29T23:31:35.916Z,36.85
2022-11-29T23:34:04.477Z,41.83
2022-11-29T23:36:31.601Z,33.63
2022-11-29T23:38:58.935Z,38.70
2022-11-29T23:41:25.894Z,32.63
2022-11-29T23:43:53.091Z,32.55
2022-11-29T23:46:21.502Z,38.38
2022-11-29T23:48:49.107Z,32.17
2022-11-29T23:51:18.167Z,32.75
2022-11-29T23:53:46.747Z,27.67
2022-11-29T23:56:15.824Z,30.27
2022-11-29T23:58:43.915Z,29.73
